createdAt,value
2022-09-16T00:00:45.766Z,4.35
2022-09-16T00:03:13.672Z,4.20
2022-09-16T00:05:42.461Z,5.40
2022-09-16T00:08:09.700Z,4.57
2022-09-16T00:10:36.944Z,5.35
2022-09-16T00:13:04.814Z,2.42
2022-09-16T00:15:31.903Z,3.55
2022-09-16T00:17:59.750Z,4.63
2022-09-16T00:20:26.946Z,2.45
2022-09-16T00:22:54.113Z,3.45
2022-09-16T00:25:20.797Z,6.65
2022-09-16T00:27:50.208Z,2.97
2022-09-16T00:30:16.927Z,4.03
2022-09-16T00:32:44.378Z,5.63
2022-09-16T00:35:11.016Z,4.20
2022-09-16T00:37:37.612Z,2.97
2022-09-16T00:40:04.861Z,9.02
2022-09-16T00:42:31.559Z,8.25
2022-09-16T00:45:03.266Z,5.07
2022-09-16T00:47:40.914Z,5.03
2022-09-16T00:50:33.673Z,5.70
2022-09-16T00:53:00.833Z,3.97
2022-09-16T00:55:31.725Z,6.40
2022-09-16T00:58:06.956Z,4.60
2022-09-16T01:00:33.599Z,4.82
2022-09-16T01:03:00.202Z,7.55
2022-09-16T01:05:27.954Z,4.40
2022-09-16T01:07:55.159Z,7.18
2022-09-16T01:10:24.491Z,3.47
2022-09-16T01:13:00.771Z,5.95
2022-09-16T01:15:48.673Z,4.00
2022-09-16T01:18:30.586Z,4.45
2022-09-16T01:21:06.243Z,4.20
2022-09-16T01:23:54.035Z,1.92
2022-09-16T01:27:08.647Z,4.82
2022-09-16T01:29:58.230Z,4.93
2022-09-16T01:32:36.400Z,5.68
2022-09-16T01:35:33.950Z,5.25
2022-09-16T01:38:36.560Z,5.10
2022-09-16T01:41:23.551Z,6.22
2022-09-16T01:43:57.780Z,6.05
2022-09-16T01:46:36.415Z,2.88
2022-09-16T01:49:16.113Z,7.20
2022-09-16T01:52:06.532Z,13.55
2022-09-16T01:54:45.833Z,9.38
2022-09-16T01:57:38.252Z,4.30
2022-09-16T02:00:14.381Z,3.60
2022-09-16T02:02:48.018Z,3.83
2022-09-16T02:05:24.695Z,3.58
2022-09-16T02:07:58.902Z,1.75
2022-09-16T02:10:33.085Z,2.35
2022-09-16T02:13:06.704Z,4.47
2022-09-16T02:15:34.336Z,2.67
2022-09-16T02:18:13.478Z,2.28
2022-09-16T02:20:46.479Z,3.05
2022-09-16T02:23:22.740Z,5.13
2022-09-16T02:25:50.838Z,3.00
2022-09-16T02:28:21.884Z,3.20
2022-09-16T02:30:55.397Z,8.65
2022-09-16T02:33:25.287Z,2.65
2022-09-16T02:35:55.692Z,3.95
2022-09-16T02:38:33.096Z,1.88
2022-09-16T02:41:01.424Z,2.88
2022-09-16T02:43:28.802Z,3.85
2022-09-16T02:46:23.313Z,8.82
2022-09-16T02:48:55.795Z,4.03
2022-09-16T02:51:52.812Z,8.68
2022-09-16T02:54:34.332Z,7.95
2022-09-16T02:57:00.976Z,7.78
2022-09-16T02:59:27.664Z,4.90
2022-09-16T03:01:55.010Z,7.88
2022-09-16T03:04:21.955Z,6.03
2022-09-16T03:09:36.667Z,4.97
2022-09-16T03:12:22.589Z,8.30
2022-09-16T03:15:26.793Z,5.07
2022-09-16T03:18:02.515Z,5.07
2022-09-16T03:20:55.578Z,6.32
2022-09-16T03:23:44.954Z,5.32
2022-09-16T03:26:45.687Z,5.10
2022-09-16T03:30:00.808Z,9.55
2022-09-16T03:32:39.153Z,4.70
2022-09-16T03:35:14.816Z,7.10
2022-09-16T03:37:43.902Z,6.35
2022-09-16T03:40:14.704Z,7.32
2022-09-16T03:42:44.569Z,3.22
2022-09-16T03:45:16.492Z,2.67
2022-09-16T03:47:44.828Z,2.95
2022-09-16T03:50:11.468Z,7.18
2022-09-16T03:52:39.439Z,8.55
2022-09-16T03:55:07.629Z,8.32
2022-09-16T03:57:34.706Z,5.75
2022-09-16T04:00:01.422Z,5.10
2022-09-16T04:02:28.224Z,4.50
2022-09-16T04:04:54.848Z,6.63
2022-09-16T04:07:21.418Z,13.98
2022-09-16T04:09:47.992Z,9.18
2022-09-16T04:12:14.895Z,2.80
2022-09-16T04:14:41.556Z,8.80
2022-09-16T04:17:08.270Z,14.15
2022-09-16T04:22:19.122Z,13.63
2022-09-16T04:24:45.715Z,15.25
2022-09-16T04:27:15.475Z,19.45
2022-09-16T04:29:42.540Z,10.05
2022-09-16T04:32:09.078Z,7.10
2022-09-16T04:34:35.698Z,5.53
2022-09-16T04:37:02.264Z,11.55
2022-09-16T04:39:29.203Z,11.10
2022-09-16T04:41:55.936Z,15.25
2022-09-16T04:44:22.586Z,13.45
2022-09-16T04:46:49.403Z,15.90
2022-09-16T04:49:16.056Z,13.05
2022-09-16T04:51:42.593Z,9.32
2022-09-16T04:54:09.686Z,11.43
2022-09-16T04:56:36.305Z,3.90
2022-09-16T04:59:05.506Z,12.20
2022-09-16T05:01:38.432Z,21.95
2022-09-16T05:04:07.475Z,17.88
2022-09-16T05:06:36.927Z,16.05
2022-09-16T05:09:03.866Z,21.88
2022-09-16T05:11:36.894Z,14.40
2022-09-16T05:14:06.034Z,20.52
2022-09-16T05:16:33.167Z,16.85
2022-09-16T05:19:01.667Z,25.13
2022-09-16T05:21:28.900Z,18.70
2022-09-16T05:23:59.690Z,28.20
2022-09-16T05:26:28.738Z,20.08
2022-09-16T05:28:55.687Z,28.45
2022-09-16T05:31:26.536Z,24.95
2022-09-16T05:34:05.885Z,23.15
2022-09-16T05:36:35.233Z,28.08
2022-09-16T05:39:22.228Z,15.63
2022-09-16T05:41:50.143Z,24.52
2022-09-16T05:44:16.770Z,25.95
2022-09-16T05:46:43.963Z,18.65
2022-09-16T05:49:11.364Z,25.15
2022-09-16T05:51:39.520Z,20.52
2022-09-16T05:54:06.247Z,24.13
2022-09-16T05:56:33.387Z,19.38
2022-09-16T05:59:01.037Z,17.60
2022-09-16T06:01:31.331Z,20.50
2022-09-16T06:04:00.145Z,27.00
2022-09-16T06:06:44.922Z,21.35
2022-09-16T06:09:13.044Z,14.25
2022-09-16T06:11:43.181Z,8.38
2022-09-16T06:14:10.318Z,12.73
2022-09-16T06:16:37.262Z,12.63
2022-09-16T06:19:07.146Z,12.35
2022-09-16T06:21:33.748Z,10.75
2022-09-16T06:24:00.306Z,3.63
2022-09-16T06:26:27.516Z,5.97
2022-09-16T06:28:54.778Z,4.82
2022-09-16T06:31:26.520Z,8.90
2022-09-16T06:33:54.157Z,5.97
2022-09-16T06:36:26.720Z,6.45
2022-09-16T06:38:53.718Z,11.90
2022-09-16T06:41:21.796Z,11.57
2022-09-16T06:43:51.169Z,9.07
2022-09-16T06:46:24.041Z,7.05
2022-09-16T06:48:53.068Z,8.48
2022-09-16T06:51:27.811Z,6.18
2022-09-16T06:53:59.131Z,6.25
2022-09-16T06:56:25.701Z,8.13
2022-09-16T06:58:55.982Z,7.70
2022-09-16T07:01:30.437Z,3.95
2022-09-16T07:03:58.782Z,8.00
2022-09-16T07:09:16.497Z,5.13
2022-09-16T07:11:43.128Z,8.82
2022-09-16T07:14:09.850Z,6.20
2022-09-16T07:16:36.983Z,6.10
2022-09-16T07:19:04.378Z,8.50
2022-09-16T07:21:31.313Z,9.95
2022-09-16T07:24:00.287Z,5.63
2022-09-16T07:26:31.180Z,5.10
2022-09-16T07:29:02.056Z,6.95
2022-09-16T07:31:31.799Z,7.70
2022-09-16T07:34:03.717Z,9.60
2022-09-16T07:36:40.365Z,6.63
2022-09-16T07:39:07.415Z,14.73
2022-09-16T07:41:36.590Z,9.60
2022-09-16T07:44:05.843Z,9.40
2022-09-16T07:46:35.143Z,5.43
2022-09-16T07:49:03.424Z,4.53
2022-09-16T07:51:31.261Z,5.53
2022-09-16T07:54:02.272Z,6.15
2022-09-16T07:56:30.743Z,4.53
2022-09-16T07:58:58.073Z,5.00
2022-09-16T08:01:25.042Z,2.70
2022-09-16T08:03:51.839Z,7.22
2022-09-16T08:06:22.295Z,8.65
2022-09-16T08:08:51.407Z,4.75
2022-09-16T08:11:18.031Z,5.50
2022-09-16T08:13:46.407Z,6.63
2022-09-16T08:16:19.939Z,9.05
2022-09-16T08:18:48.282Z,5.15
2022-09-16T08:21:18.276Z,7.97
2022-09-16T08:23:45.731Z,4.28
2022-09-16T08:26:14.207Z,5.05
2022-09-16T08:28:57.498Z,5.97
2022-09-16T08:31:29.502Z,6.10
2022-09-16T08:33:56.455Z,5.82
2022-09-16T08:36:25.210Z,11.35
2022-09-16T08:38:55.678Z,7.72
2022-09-16T08:41:25.367Z,4.45
2022-09-16T08:44:03.709Z,15.38
2022-09-16T08:46:52.981Z,8.70
2022-09-16T08:49:37.226Z,12.30
2022-09-16T08:52:15.442Z,5.88
2022-09-16T08:54:49.776Z,4.32
2022-09-16T08:57:21.423Z,12.15
2022-09-16T09:00:04.556Z,8.00
2022-09-16T09:02:54.733Z,8.80
2022-09-16T09:05:32.557Z,11.70
2022-09-16T09:08:01.784Z,6.50
2022-09-16T09:10:58.069Z,16.25
2022-09-16T09:13:47.057Z,7.68
2022-09-16T09:16:25.569Z,7.20
2022-09-16T09:19:24.613Z,10.05
2022-09-16T09:22:19.494Z,7.53
2022-09-16T09:25:07.388Z,5.80
2022-09-16T09:27:37.063Z,4.22
2022-09-16T09:30:07.965Z,6.13
2022-09-16T09:32:51.273Z,8.52
2022-09-16T09:35:29.507Z,9.30
2022-09-16T09:38:31.495Z,8.73
2022-09-16T09:41:17.468Z,3.95
2022-09-16T09:43:55.760Z,6.22
2022-09-16T09:46:31.531Z,6.70
2022-09-16T09:49:07.834Z,8.80
2022-09-16T09:52:17.842Z,8.02
2022-09-16T09:54:49.685Z,9.93
2022-09-16T09:57:36.969Z,7.97
2022-09-16T10:00:07.869Z,8.90
2022-09-16T10:02:35.732Z,10.30
2022-09-16T10:05:02.319Z,9.80
2022-09-16T10:07:29.272Z,5.90
2022-09-16T10:10:04.066Z,11.32
2022-09-16T10:12:33.159Z,14.15
2022-09-16T10:15:00.271Z,7.82
2022-09-16T10:17:30.863Z,8.73
2022-09-16T10:20:10.589Z,13.15
2022-09-16T10:22:37.163Z,13.48
2022-09-16T10:25:08.360Z,10.23
2022-09-16T10:27:37.520Z,7.63
2022-09-16T10:30:16.925Z,2.40
2022-09-16T10:32:46.973Z,7.40
2022-09-16T10:35:28.367Z,7.43
2022-09-16T10:37:59.360Z,9.90
2022-09-16T10:40:27.035Z,6.07
2022-09-16T10:43:03.118Z,5.07
2022-09-16T10:45:34.223Z,5.57
2022-09-16T10:48:07.393Z,6.20
2022-09-16T10:50:34.236Z,6.60
2022-09-16T10:53:00.924Z,5.57
2022-09-16T10:55:30.394Z,3.95
2022-09-16T10:58:08.902Z,7.78
2022-09-16T11:00:55.765Z,9.40
2022-09-16T11:03:56.902Z,4.93
2022-09-16T11:06:35.888Z,4.65
2022-09-16T11:09:15.816Z,2.80
2022-09-16T11:12:14.977Z,2.22
2022-09-16T11:15:05.965Z,2.58
2022-09-16T11:17:41.680Z,4.15
2022-09-16T11:20:29.206Z,3.03
2022-09-16T11:23:02.192Z,2.85
2022-09-16T11:25:41.486Z,2.22
2022-09-16T11:28:32.718Z,5.25
2022-09-16T11:31:38.123Z,3.58
2022-09-16T11:34:33.364Z,7.20
2022-09-16T11:37:07.752Z,3.00
2022-09-16T11:40:02.373Z,3.03
2022-09-16T11:42:42.150Z,2.08
2022-09-16T11:45:21.788Z,3.33
2022-09-16T11:48:25.505Z,6.30
2022-09-16T11:51:12.454Z,3.00
2022-09-16T11:53:57.417Z,2.60
2022-09-16T11:56:45.923Z,2.17
2022-09-16T11:59:30.605Z,0.68
2022-09-16T12:02:48.859Z,0.60
2022-09-16T12:05:23.355Z,3.33
2022-09-16T12:08:14.583Z,1.38
2022-09-16T12:10:53.583Z,1.25
2022-09-16T12:13:28.355Z,1.77
2022-09-16T12:16:01.196Z,2.58
2022-09-16T12:18:30.735Z,0.45
2022-09-16T12:21:14.476Z,0.93
2022-09-16T12:23:45.320Z,1.38
2022-09-16T12:26:38.303Z,1.27
2022-09-16T12:29:28.400Z,1.88
2022-09-16T12:32:08.437Z,2.90
2022-09-16T12:34:41.730Z,0.60
2022-09-16T12:37:28.108Z,1.88
2022-09-16T12:39:54.965Z,1.60
2022-09-16T12:42:24.480Z,7.53
2022-09-16T12:45:09.595Z,5.35
2022-09-16T12:48:05.508Z,5.22
2022-09-16T12:50:49.996Z,2.90
2022-09-16T12:53:25.405Z,8.02
2022-09-16T12:56:05.540Z,2.75
2022-09-16T12:59:04.632Z,3.15
2022-09-16T13:01:37.342Z,3.67
2022-09-16T13:04:16.655Z,2.58
2022-09-16T13:06:52.067Z,3.22
2022-09-16T13:09:26.114Z,2.53
2022-09-16T13:14:56.467Z,4.78
2022-09-16T13:17:38.008Z,5.97
2022-09-16T13:20:33.502Z,10.93
2022-09-16T13:23:14.530Z,5.43
2022-09-16T13:25:58.548Z,9.10
2022-09-16T13:28:37.138Z,6.18
2022-09-16T13:31:13.015Z,8.90
2022-09-16T13:33:40.599Z,5.40
2022-09-16T13:36:14.968Z,5.47
2022-09-16T13:38:44.677Z,3.72
2022-09-16T13:41:13.998Z,10.73
2022-09-16T13:43:43.539Z,2.75
2022-09-16T13:46:16.414Z,2.90
2022-09-16T13:49:10.966Z,0.90
2022-09-16T13:51:45.351Z,1.33
2022-09-16T13:55:06.393Z,2.00
2022-09-16T13:57:32.393Z,1.00
2022-09-16T14:00:23.901Z,2.97
2022-09-16T14:03:11.964Z,4.03
2022-09-16T14:05:45.706Z,3.20
2022-09-16T14:08:38.555Z,2.53
2022-09-16T14:11:12.016Z,4.15
2022-09-16T14:13:46.846Z,2.45
2022-09-16T14:16:26.348Z,0.30
2022-09-16T14:19:22.229Z,1.15
2022-09-16T14:22:10.833Z,0.55
2022-09-16T14:24:40.299Z,1.52
2022-09-16T14:27:43.779Z,0.13
2022-09-16T14:30:17.384Z,2.75
2022-09-16T14:32:45.817Z,1.23
2022-09-16T14:35:19.080Z,1.85
2022-09-16T14:37:49.404Z,2.17
2022-09-16T14:40:20.493Z,0.88
2022-09-16T14:43:09.661Z,2.88
2022-09-16T14:45:37.703Z,0.68
2022-09-16T14:48:10.610Z,2.60
2022-09-16T14:50:45.135Z,2.83
2022-09-16T14:54:09.028Z,0.95
2022-09-16T14:56:38.613Z,1.20
2022-09-16T14:59:06.297Z,2.92
2022-09-16T15:01:32.930Z,4.38
2022-09-16T15:04:25.651Z,2.58
2022-09-16T15:07:00.722Z,3.67
2022-09-16T15:09:51.718Z,2.72
2022-09-16T15:12:25.383Z,7.13
2022-09-16T15:14:52.566Z,4.75
2022-09-16T15:17:22.666Z,3.28
2022-09-16T15:19:54.675Z,1.88
2022-09-16T15:22:21.845Z,5.65
2022-09-16T15:24:53.528Z,6.55
2022-09-16T15:27:29.590Z,3.35
2022-09-16T15:29:59.499Z,0.68
2022-09-16T15:32:31.984Z,3.10
2022-09-16T15:35:23.231Z,2.97
2022-09-16T15:37:51.822Z,4.28
2022-09-16T15:40:31.808Z,2.40
2022-09-16T15:43:28.633Z,1.25
2022-09-16T15:46:03.570Z,2.95
2022-09-16T15:48:43.355Z,1.73
2022-09-16T15:51:26.975Z,3.28
2022-09-16T15:54:00.099Z,1.80
2022-09-16T15:56:34.590Z,2.88
2022-09-16T15:59:06.645Z,1.85
2022-09-16T16:01:53.082Z,1.20
2022-09-16T16:04:31.697Z,1.40
2022-09-16T16:07:04.825Z,3.65
2022-09-16T16:09:38.208Z,3.17
2022-09-16T16:12:13.792Z,3.90
2022-09-16T16:14:41.201Z,3.13
2022-09-16T16:17:17.151Z,2.45
2022-09-16T16:19:45.693Z,2.67
2022-09-16T16:22:12.922Z,2.90
2022-09-16T16:24:39.662Z,3.33
2022-09-16T16:27:06.585Z,1.95
2022-09-16T16:29:33.163Z,4.45
2022-09-16T16:32:02.974Z,6.82
2022-09-16T16:34:37.030Z,2.10
2022-09-16T16:37:04.221Z,2.40
2022-09-16T16:39:31.048Z,9.63
2022-09-16T16:41:57.915Z,4.63
2022-09-16T16:44:25.537Z,9.88
2022-09-16T16:46:54.178Z,4.20
2022-09-16T16:49:21.723Z,3.60
2022-09-16T16:51:50.257Z,8.32
2022-09-16T16:54:20.676Z,5.07
2022-09-16T16:56:47.779Z,3.53
2022-09-16T16:59:15.555Z,3.60
2022-09-16T17:01:48.446Z,2.80
2022-09-16T17:04:15.739Z,3.67
2022-09-16T17:06:42.922Z,3.17
2022-09-16T17:09:15.575Z,3.03
2022-09-16T17:11:53.768Z,3.08
2022-09-16T17:14:21.566Z,0.98
2022-09-16T17:16:48.621Z,4.95
2022-09-16T17:19:17.164Z,1.30
2022-09-16T17:21:45.935Z,5.95
2022-09-16T17:24:13.772Z,1.50
2022-09-16T17:26:40.454Z,3.35
2022-09-16T17:29:14.992Z,4.75
2022-09-16T17:31:43.283Z,3.33
2022-09-16T17:34:13.570Z,1.10
2022-09-16T17:36:45.689Z,4.18
2022-09-16T17:39:15.034Z,3.60
2022-09-16T17:41:45.887Z,5.65
2022-09-16T17:44:14.016Z,1.85
2022-09-16T17:46:43.112Z,4.28
2022-09-16T17:49:18.389Z,4.32
2022-09-16T17:51:45.390Z,2.45
2022-09-16T17:54:12.291Z,6.65
2022-09-16T17:56:39.320Z,7.32
2022-09-16T17:59:05.946Z,16.25
2022-09-16T18:01:32.660Z,9.55
2022-09-16T18:03:59.740Z,22.10
2022-09-16T18:06:32.094Z,21.95
2022-09-16T18:09:04.474Z,35.15
2022-09-16T18:11:31.164Z,20.45
2022-09-16T18:14:00.637Z,33.75
2022-09-16T18:16:29.320Z,15.75
2022-09-16T18:18:59.638Z,8.05
2022-09-16T18:21:26.704Z,4.13
2022-09-16T18:23:56.279Z,5.50
2022-09-16T18:26:22.957Z,2.42
2022-09-16T18:29:09.529Z,3.80
2022-09-16T18:31:38.432Z,8.93
2022-09-16T18:34:05.159Z,10.50
2022-09-16T18:36:33.439Z,8.98
2022-09-16T18:39:00.524Z,6.22
2022-09-16T18:41:29.923Z,5.07
2022-09-16T18:44:01.843Z,1.85
2022-09-16T18:46:30.590Z,8.25
2022-09-16T18:48:58.409Z,4.90
2022-09-16T18:51:30.527Z,3.25
2022-09-16T18:54:00.767Z,4.72
2022-09-16T18:56:29.520Z,2.15
2022-09-16T18:59:22.167Z,3.45
2022-09-16T19:01:51.543Z,7.03
2022-09-16T19:04:20.943Z,22.33
2022-09-16T19:06:49.638Z,27.55
2022-09-16T19:09:18.566Z,45.38
2022-09-16T19:11:45.680Z,44.78
2022-09-16T19:14:14.084Z,45.25
2022-09-16T19:16:42.340Z,41.50
2022-09-16T19:19:11.146Z,18.30
2022-09-16T19:21:38.381Z,4.05
2022-09-16T19:24:07.335Z,5.63
2022-09-16T19:26:36.920Z,5.53
2022-09-16T19:29:06.848Z,7.47
2022-09-16T19:31:35.403Z,7.88
2022-09-16T19:34:02.403Z,5.68
2022-09-16T19:36:31.123Z,3.15
2022-09-16T19:38:59.175Z,3.28
2022-09-16T19:41:29.386Z,3.22
2022-09-16T19:44:04.816Z,5.20
2022-09-16T19:46:35.437Z,8.05
2022-09-16T19:49:02.554Z,2.08
2022-09-16T19:51:29.290Z,3.10
2022-09-16T19:53:56.059Z,2.00
2022-09-16T19:56:25.572Z,1.75
2022-09-16T19:58:53.012Z,5.40
2022-09-16T20:01:23.692Z,2.22
2022-09-16T20:03:50.776Z,1.77
2022-09-16T20:06:28.856Z,5.25
2022-09-16T20:08:59.757Z,6.05
2022-09-16T20:11:29.259Z,5.05
2022-09-16T20:14:05.342Z,2.45
2022-09-16T20:16:37.804Z,3.50
2022-09-16T20:19:07.924Z,6.10
2022-09-16T20:21:35.286Z,5.32
2022-09-16T20:24:05.699Z,6.15
2022-09-16T20:26:33.382Z,4.25
2022-09-16T20:29:00.587Z,9.25
2022-09-16T20:31:29.736Z,5.40
2022-09-16T20:33:56.450Z,4.00
2022-09-16T20:36:24.643Z,4.65
2022-09-16T20:38:52.672Z,6.20
2022-09-16T20:41:19.181Z,5.35
2022-09-16T20:43:46.347Z,18.10
2022-09-16T20:46:26.246Z,14.90
2022-09-16T20:48:58.623Z,10.48
2022-09-16T20:51:27.891Z,13.63
2022-09-16T20:53:57.160Z,15.25
2022-09-16T20:56:24.766Z,17.75
2022-09-16T20:58:51.725Z,21.92
2022-09-16T21:01:25.132Z,13.18
2022-09-16T21:04:00.973Z,11.43
2022-09-16T21:06:29.145Z,15.25
2022-09-16T21:08:59.703Z,10.65
2022-09-16T21:11:29.957Z,15.38
2022-09-16T21:13:58.308Z,11.55
2022-09-16T21:16:26.580Z,13.50
2022-09-16T21:18:57.117Z,14.52
2022-09-16T21:21:25.302Z,11.43
2022-09-16T21:23:53.756Z,7.22
2022-09-16T21:26:40.946Z,7.95
2022-09-16T21:29:11.109Z,9.77
2022-09-16T21:31:40.243Z,12.50
2022-09-16T21:34:10.852Z,10.57
2022-09-16T21:36:39.427Z,10.20
2022-09-16T21:39:07.232Z,9.00
2022-09-16T21:41:34.104Z,8.48
2022-09-16T21:44:01.590Z,8.18
2022-09-16T21:46:34.017Z,6.00
2022-09-16T21:49:03.426Z,9.13
2022-09-16T21:51:35.421Z,6.82
2022-09-16T21:54:04.557Z,7.82
2022-09-16T21:56:31.651Z,10.27
2022-09-16T21:58:58.733Z,8.82
2022-09-16T22:01:30.453Z,6.88
2022-09-16T22:04:04.593Z,3.78
2022-09-16T22:06:31.690Z,5.18
2022-09-16T22:09:00.925Z,4.70
2022-09-16T22:11:32.741Z,6.60
2022-09-16T22:14:00.730Z,6.03
2022-09-16T22:16:29.578Z,5.85
2022-09-16T22:19:01.803Z,4.50
2022-09-16T22:21:30.854Z,6.47
2022-09-16T22:23:59.342Z,5.65
2022-09-16T22:26:27.067Z,9.18
2022-09-16T22:28:53.735Z,16.52
2022-09-16T22:31:26.092Z,5.30
2022-09-16T22:33:54.319Z,6.68
2022-09-16T22:36:26.143Z,9.65
2022-09-16T22:38:55.243Z,7.22
2022-09-16T22:41:23.468Z,6.82
2022-09-16T22:43:51.766Z,5.82
2022-09-16T22:46:21.149Z,9.45
2022-09-16T22:48:48.736Z,7.35
2022-09-16T22:51:18.110Z,8.55
2022-09-16T22:53:45.258Z,7.70
2022-09-16T22:56:25.035Z,7.43
2022-09-16T22:58:53.721Z,6.72
2022-09-16T23:01:26.639Z,5.43
2022-09-16T23:03:55.503Z,5.60
2022-09-16T23:06:23.757Z,9.20
2022-09-16T23:08:50.986Z,8.25
2022-09-16T23:11:20.841Z,6.50
2022-09-16T23:13:50.415Z,6.28
2022-09-16T23:16:21.261Z,5.63
2022-09-16T23:18:48.955Z,9.05
2022-09-16T23:21:19.109Z,11.95
2022-09-16T23:23:49.554Z,6.70
2022-09-16T23:26:18.878Z,7.97
2022-09-16T23:28:46.079Z,7.63
2022-09-16T23:31:17.455Z,7.47
2022-09-16T23:33:45.359Z,10.88
2022-09-16T23:36:14.311Z,5.40
2022-09-16T23:38:42.269Z,5.65
2022-09-16T23:41:12.226Z,6.10
2022-09-16T23:43:39.553Z,7.55
2022-09-16T23:46:06.784Z,6.05
2022-09-16T23:48:34.020Z,6.05
2022-09-16T23:51:01.395Z,6.78
2022-09-16T23:53:28.858Z,5.43
2022-09-16T23:55:55.776Z,5.45
2022-09-16T23:58:22.697Z,9.40
